createdAt,value
2022-07-29T00:07:53.474Z,97850
2022-07-29T00:19:53.677Z,97850
2022-07-29T00:31:53.537Z,97840
2022-07-29T00:43:53.461Z,97840
2022-07-29T00:55:53.409Z,97840
2022-07-29T01:07:53.452Z,97830
2022-07-29T01:19:53.482Z,97810
2022-07-29T01:31:59.627Z,97800
2022-07-29T01:43:53.454Z,97780
2022-07-29T01:55:53.417Z,97770
2022-07-29T02:07:53.441Z,97770
2022-07-29T02:19:53.421Z,97760
2022-07-29T02:31:53.471Z,97790
2022-07-29T02:43:53.464Z,97790
2022-07-29T02:55:53.467Z,97780
2022-07-29T03:07:53.482Z,97780
2022-07-29T03:19:53.471Z,97780
2022-07-29T03:31:53.443Z,97770
2022-07-29T03:43:53.461Z,97780
2022-07-29T03:55:53.512Z,97770
2022-07-29T04:07:53.469Z,97770
2022-07-29T04:19:53.447Z,97780
2022-07-29T04:31:53.594Z,97780
2022-07-29T04:43:53.466Z,97790
2022-07-29T04:55:53.468Z,97780
2022-07-29T05:07:53.456Z,97790
2022-07-29T05:19:53.487Z,97790
2022-07-29T05:31:53.491Z,97810
2022-07-29T05:43:53.533Z,97830
2022-07-29T05:55:53.487Z,97840
2022-07-29T06:07:53.435Z,97850
2022-07-29T06:19:53.466Z,97860
2022-07-29T06:31:53.465Z,97850
2022-07-29T06:43:55.225Z,97860
2022-07-29T06:55:53.903Z,97880
2022-07-29T07:07:53.489Z,97870
2022-07-29T07:19:53.479Z,97880
2022-07-29T07:31:57.518Z,97880
2022-07-29T07:43:53.461Z,97870
2022-07-29T07:56:09.845Z,97860
2022-07-29T08:07:53.435Z,97880
2022-07-29T08:19:53.645Z,97890
2022-07-29T08:31:53.642Z,97880
2022-07-29T08:43:53.467Z,97890
2022-07-29T08:55:53.499Z,97880
2022-07-29T09:07:53.462Z,97870
2022-07-29T09:19:53.736Z,97870
2022-07-29T09:31:53.693Z,97860
2022-07-29T09:43:53.825Z,97850
2022-07-29T09:55:53.463Z,97840
2022-07-29T10:07:54.063Z,97840
2022-07-29T10:19:53.472Z,97830
2022-07-29T10:31:53.775Z,97830
2022-07-29T10:43:53.475Z,97820
2022-07-29T10:55:53.692Z,97830
2022-07-29T11:07:53.466Z,97800
2022-07-29T11:19:53.485Z,97810
2022-07-29T11:31:53.462Z,97810
2022-07-29T11:43:53.537Z,97800
2022-07-29T11:55:53.466Z,97790
2022-07-29T12:07:53.450Z,97790
2022-07-29T12:19:53.656Z,97790
2022-07-29T12:31:53.517Z,97800
2022-07-29T12:43:53.446Z,97790
2022-07-29T12:55:53.483Z,97780
2022-07-29T13:07:57.076Z,97770
2022-07-29T13:19:53.475Z,97760
2022-07-29T13:31:53.462Z,97750
2022-07-29T13:43:53.460Z,97740
2022-07-29T13:55:53.466Z,97750
2022-07-29T14:07:53.467Z,97770
2022-07-29T14:19:53.484Z,97760
2022-07-29T14:31:53.541Z,97770
2022-07-29T14:43:53.475Z,97780
2022-07-29T14:55:53.832Z,97780
2022-07-29T15:07:53.476Z,97770
2022-07-29T15:19:53.446Z,97770
2022-07-29T15:31:53.543Z,97770
2022-07-29T15:43:53.650Z,97770
2022-07-29T15:55:53.506Z,97780
2022-07-29T16:07:53.460Z,97770
2022-07-29T16:19:53.476Z,97770
2022-07-29T16:31:53.503Z,97790
2022-07-29T16:43:53.448Z,97800
2022-07-29T16:55:54.164Z,97810
2022-07-29T17:07:53.456Z,97810
2022-07-29T17:19:53.529Z,97840
2022-07-29T17:31:53.504Z,97850
2022-07-29T17:43:53.475Z,97880
2022-07-29T17:55:53.462Z,97890
2022-07-29T18:07:53.457Z,97910
2022-07-29T18:19:53.477Z,97910
2022-07-29T18:31:53.452Z,97930
2022-07-29T18:43:53.459Z,97930
2022-07-29T18:55:56.326Z,97940
2022-07-29T19:07:53.445Z,97960
2022-07-29T19:19:53.475Z,97980
2022-07-29T19:31:53.461Z,97990
2022-07-29T19:43:53.463Z,98000
2022-07-29T19:55:53.577Z,98010
2022-07-29T20:07:53.461Z,98020
2022-07-29T20:19:53.457Z,98030
2022-07-29T20:31:56.240Z,98040
2022-07-29T20:43:53.446Z,98040
2022-07-29T20:55:53.449Z,98040
2022-07-29T21:07:57.803Z,98060
2022-07-29T21:19:53.468Z,98080
2022-07-29T21:31:53.475Z,98080
2022-07-29T21:43:53.467Z,98090
2022-07-29T21:55:53.458Z,98090
2022-07-29T22:07:54.541Z,98090
2022-07-29T22:19:53.441Z,98090
2022-07-29T22:31:53.459Z,98100
2022-07-29T22:43:53.504Z,98100
2022-07-29T22:55:53.461Z,98100
2022-07-29T23:07:53.456Z,98100
2022-07-29T23:19:53.467Z,98100
2022-07-29T23:31:53.448Z,98100
2022-07-29T23:43:53.460Z,98090
2022-07-29T23:55:53.658Z,98080
